Time;durP1;ratioP1;P1;durP2;ratioP2;P2;SDS_P1;SDS_P2;PMS_P1;PMS_P2;Temp;Humidity;BMP_temperature;BMP_pressure;BME280_temperature;BME280_humidity;BME280_pressure;Samples;Min_cycle;Max_cycle;Signal;HPM_P1;HPM_P2
2021/09/22 00:00:20;;;;;;;30.52;4.95;;;;;;;10.74;100.00;102358.09;5069271;28;20507;-68
2021/09/22 00:02:46;;;;;;;33.25;4.60;;;;;;;10.75;100.00;102355.31;5069270;28;20142;-68
2021/09/22 00:05:13;;;;;;;36.00;5.20;;;;;;;10.80;100.00;102356.78;5052481;28;20485;-68
2021/09/22 00:07:39;;;;;;;34.95;6.28;;;;;;;10.76;100.00;102351.66;5070134;28;20040;-68
2021/09/22 00:10:10;;;;;;;32.90;6.65;;;;;;;10.78;100.00;102354.22;5068555;28;20561;-69
2021/09/22 00:12:36;;;;;;;33.05;7.03;;;;;;;10.78;100.00;102346.22;5052514;28;20046;-68
2021/09/22 00:15:04;;;;;;;42.05;5.22;;;;;;;10.78;100.00;102343.53;5069561;28;20020;-68
2021/09/22 00:17:29;;;;;;;30.52;4.70;;;;;;;10.69;100.00;102338.94;5069904;28;20051;-68
2021/09/22 00:19:55;;;;;;;34.70;6.30;;;;;;;10.67;100.00;102346.22;5068631;28;20032;-68
2021/09/22 00:22:20;;;;;;;26.03;5.13;;;;;;;10.64;100.00;102351.81;5070020;28;20283;-68
2021/09/22 00:24:46;;;;;;;29.87;4.83;;;;;;;10.54;100.00;102357.06;5068421;28;20075;-68
2021/09/22 00:27:11;;;;;;;35.10;6.17;;;;;;;10.57;100.00;102363.00;5069735;28;20062;-68
2021/09/22 00:29:36;;;;;;;36.13;6.07;;;;;;;10.52;100.00;102370.53;5068358;28;20045;-68
2021/09/22 00:32:02;;;;;;;39.60;5.53;;;;;;;10.53;100.00;102366.88;5069869;28;20028;-68
2021/09/22 00:34:28;;;;;;;34.00;5.43;;;;;;;10.54;100.00;102363.25;5051709;28;20299;-68
2021/09/22 00:36:53;;;;;;;32.10;5.50;;;;;;;10.54;100.00;102355.22;5068715;28;20097;-68
2021/09/22 00:39:19;;;;;;;34.13;6.33;;;;;;;10.54;100.00;102357.06;5069297;28;20029;-68
2021/09/22 00:41:44;;;;;;;43.53;6.07;;;;;;;10.60;100.00;102364.56;5068536;28;20105;-68
2021/09/22 00:44:10;;;;;;;36.13;6.45;;;;;;;10.67;100.00;102351.56;5068419;28;20039;-68
2021/09/22 00:46:35;;;;;;;33.77;5.73;;;;;;;10.74;100.00;102363.44;5068326;28;20058;-68
2021/09/22 00:49:00;;;;;;;27.23;4.03;;;;;;;10.75;100.00;102365.16;5068251;28;20152;-68
2021/09/22 00:51:32;;;;;;;32.17;5.93;;;;;;;10.78;100.00;102359.56;5068264;28;20028;-68
2021/09/22 00:53:57;;;;;;;39.58;5.93;;;;;;;10.77;100.00;102357.88;5068264;28;20038;-68
2021/09/22 00:56:23;;;;;;;22.57;5.37;;;;;;;10.73;100.00;102356.44;5067840;28;20401;-68
2021/09/22 00:58:48;;;;;;;35.27;5.70;;;;;;;10.72;100.00;102365.41;5067875;28;20370;-68
2021/09/22 01:01:14;;;;;;;31.70;6.10;;;;;;;10.73;100.00;102367.13;5069002;28;20348;-68
2021/09/22 01:03:39;;;;;;;33.77;5.43;;;;;;;10.69;100.00;102366.50;5069216;28;20029;-68
2021/09/22 01:06:05;;;;;;;44.53;6.47;;;;;;;10.69;100.00;102366.50;5067997;28;20710;-68
2021/09/22 01:08:32;;;;;;;25.40;4.55;;;;;;;10.69;100.00;102368.31;5067884;28;20690;-68
2021/09/22 01:10:58;;;;;;;30.23;5.63;;;;;;;10.69;100.00;102360.31;5068723;28;20036;-68
2021/09/22 01:13:24;;;;;;;34.30;5.72;;;;;;;10.70;100.00;102359.31;5068055;28;20434;-68
2021/09/22 01:15:50;;;;;;;32.50;4.70;;;;;;;10.72;100.00;102360.06;5067539;28;20107;-68
2021/09/22 01:18:21;;;;;;;35.80;6.17;;;;;;;10.64;100.00;102360.69;5068936;28;20955;-68
2021/09/22 01:20:52;;;;;;;36.10;6.72;;;;;;;10.62;100.00;102364.44;5067774;28;20274;-68
2021/09/22 01:23:19;;;;;;;30.52;6.03;;;;;;;10.56;100.00;102366.66;5067491;28;20487;-68
2021/09/22 01:25:47;;;;;;;34.22;4.82;;;;;;;10.56;100.00;102377.31;5068596;28;20033;-68
2021/09/22 01:28:17;;;;;;;27.55;4.13;;;;;;;10.53;100.00;102366.03;5050808;28;20035;-68
2021/09/22 01:30:45;;;;;;;30.83;6.13;;;;;;;10.51;100.00;102357.28;5067516;28;20472;-68
2021/09/22 01:33:13;;;;;;;41.30;5.40;;;;;;;10.45;100.00;102358.63;5067452;28;20036;-68
2021/09/22 01:35:48;;;;;;;23.92;4.85;;;;;;;10.35;100.00;102363.88;5051960;28;20040;-68
2021/09/22 01:38:23;;;;;;;29.70;4.40;;;;;;;10.28;100.00;102372.47;5067650;28;20448;-68
2021/09/22 01:41:06;;;;;;;23.42;5.00;;;;;;;10.22;100.00;102379.09;5067592;28;20096;-68
2021/09/22 01:43:34;;;;;;;29.20;3.70;;;;;;;10.19;100.00;102375.84;5067310;28;20037;-68
2021/09/22 01:46:02;;;;;;;26.42;4.38;;;;;;;10.13;100.00;102371.81;5067280;28;20469;-68
2021/09/22 01:48:30;;;;;;;39.17;4.97;;;;;;;10.01;100.00;102370.97;5065695;28;20064;-68
2021/09/22 01:50:58;;;;;;;;;;;;;;;9.87;100.00;102371.19;5067857;28;20033;-68
2021/09/22 01:53:23;;;;;;;29.98;4.80;;;;;;;9.78;100.00;102372.72;5068158;28;20012;-68
2021/09/22 01:55:52;;;;;;;20.27;4.18;;;;;;;9.70;100.00;102376.00;5067181;28;20412;-68
2021/09/22 01:58:19;;;;;;;34.70;6.35;;;;;;;9.78;100.00;102385.22;5067193;28;20066;-68
2021/09/22 02:00:59;;;;;;;28.30;3.97;;;;;;;9.71;100.00;102376.84;5067323;28;20044;-68
2021/09/22 02:03:33;;;;;;;36.20;5.68;;;;;;;9.75;100.00;102377.47;5067046;28;20032;-68
2021/09/22 02:06:03;;;;;;;31.23;7.00;;;;;;;9.85;100.00;102384.63;5066909;28;20517;-68
2021/09/22 02:08:29;;;;;;;30.17;6.13;;;;;;;9.81;100.00;102374.31;5066890;28;20043;-68
2021/09/22 02:11:01;;;;;;;34.10;5.00;;;;;;;9.79;100.00;102370.94;5066969;28;20432;-68
2021/09/22 02:13:28;;;;;;;24.85;4.07;;;;;;;9.78;100.00;102374.56;5066939;28;20028;-68
2021/09/22 02:15:53;;;;;;;48.30;6.47;;;;;;;9.63;100.00;102372.09;5067361;28;20093;-68
2021/09/22 02:18:36;;;;;;;29.02;6.22;;;;;;;9.58;100.00;102379.59;5056592;28;20146;-68
2021/09/22 02:21:09;;;;;;;36.38;5.90;;;;;;;9.55;100.00;102368.28;5070941;28;20119;-68
2021/09/22 02:23:36;;;;;;;35.90;4.80;;;;;;;9.53;100.00;102373.75;5070993;28;20036;-68
2021/09/22 02:26:05;;;;;;;34.75;6.65;;;;;;;9.45;100.00;102378.81;5070609;28;20032;-68
2021/09/22 02:28:35;;;;;;;32.03;5.63;;;;;;;9.44;100.00;102383.28;5070793;28;20040;-68
2021/09/22 02:31:02;;;;;;;45.33;7.55;;;;;;;9.59;100.00;102365.28;5070688;28;20127;-68
2021/09/22 02:33:34;;;;;;;32.50;6.15;;;;;;;9.59;100.00;102365.28;5070777;28;20037;-68
2021/09/22 02:35:59;;;;;;;34.05;4.53;;;;;;;9.53;100.00;102365.75;5070237;28;20044;-68
2021/09/22 02:38:31;;;;;;;30.80;5.38;;;;;;;9.51;100.00;102365.03;5054830;28;20447;-68
2021/09/22 02:40:59;;;;;;;30.13;5.07;;;;;;;9.52;100.00;102364.88;5070462;28;20063;-68
2021/09/22 02:43:26;;;;;;;;;;;;;;;9.48;100.00;102367.91;5071149;28;20044;-68
2021/09/22 02:45:51;;;;;;;;;;;;;;;9.49;100.00;102369.63;5070697;28;19916;-68
2021/09/22 02:48:20;;;;;;;38.13;5.32;;;;;;;9.43;100.00;102364.75;5070352;28;19965;-68
2021/09/22 02:50:46;;;;;;;28.63;4.45;;;;;;;9.37;100.00;102359.88;5069982;28;20431;-68
2021/09/22 02:53:13;;;;;;;39.60;5.30;;;;;;;9.44;100.00;102374.47;5070474;28;20373;-68
2021/09/22 02:55:38;;;;;;;30.77;4.75;;;;;;;9.38;100.00;102362.41;5070001;28;20036;-68
2021/09/22 02:58:04;;;;;;;37.47;5.37;;;;;;;9.44;100.00;102355.78;5070364;28;20036;-68
2021/09/22 03:00:31;;;;;;;25.40;4.65;;;;;;;9.29;100.00;102348.00;5053543;28;20068;-68
2021/09/22 03:02:58;;;;;;;35.85;5.57;;;;;;;9.36;100.00;102355.50;5070185;28;20465;-68
2021/09/22 03:05:24;;;;;;;40.25;6.13;;;;;;;9.30;100.00;102349.69;5053221;28;20039;-68
2021/09/22 03:07:49;;;;;;;25.63;4.33;;;;;;;9.25;100.00;102346.50;5053462;28;20032;-68
2021/09/22 03:10:15;;;;;;;26.13;5.72;;;;;;;9.17;100.00;102342.72;5069993;28;20737;-68
2021/09/22 03:12:42;;;;;;;32.65;5.40;;;;;;;9.10;100.00;102344.97;5069972;28;20385;-68
2021/09/22 03:15:07;;;;;;;32.47;5.40;;;;;;;9.10;100.00;102336.97;5053056;28;20047;-68
2021/09/22 03:17:33;;;;;;;28.67;5.18;;;;;;;9.03;100.00;102341.06;5069804;28;20040;-68
2021/09/22 03:19:58;;;;;;;22.67;4.83;;;;;;;9.03;100.00;102339.25;5069705;28;20488;-68
2021/09/22 03:22:24;;;;;;;36.25;6.97;;;;;;;9.05;100.00;102345.31;5069805;28;20271;-68
2021/09/22 03:25:09;;;;;;;26.27;4.40;;;;;;;9.01;100.00;102348.31;5069712;28;20024;-68
2021/09/22 03:27:35;;;;;;;42.05;6.80;;;;;;;9.02;100.00;102339.38;5068689;28;20032;-68
2021/09/22 03:30:02;;;;;;;29.25;5.05;;;;;;;8.97;100.00;102341.53;5069518;28;20060;-68
2021/09/22 03:32:28;;;;;;;32.63;5.65;;;;;;;8.94;100.00;102342.59;5052960;28;20016;-68
2021/09/22 03:34:54;;;;;;;23.75;4.75;;;;;;;8.90;100.00;102350.91;5069479;28;20043;-68
2021/09/22 03:37:19;;;;;;;28.47;6.27;;;;;;;8.81;100.00;102342.66;5070403;28;20102;-68
2021/09/22 03:39:45;;;;;;;30.47;4.90;;;;;;;8.85;100.00;102359.28;5069336;28;20286;-68
2021/09/22 03:42:10;;;;;;;32.50;5.07;;;;;;;8.90;100.00;102364.22;5069280;28;20749;-68
2021/09/22 03:44:36;;;;;;;29.50;8.05;;;;;;;8.93;100.00;102369.34;5069354;28;20045;-68
2021/09/22 03:47:02;;;;;;;23.87;5.63;;;;;;;8.87;100.00;102363.53;5069097;28;20036;-68
2021/09/22 03:49:27;;;;;;;29.17;7.35;;;;;;;8.84;100.00;102358.41;5069120;28;20032;-68
2021/09/22 03:52:00;;;;;;;43.45;6.45;;;;;;;8.84;100.00;102358.41;5069457;28;20608;-67
2021/09/22 03:54:25;;;;;;;33.60;7.10;;;;;;;8.87;100.00;102350.19;5069806;28;20037;-68
2021/09/22 03:56:53;;;;;;;30.40;4.43;;;;;;;8.87;100.00;102366.19;5069035;28;20289;-68
2021/09/22 03:59:18;;;;;;;39.13;6.10;;;;;;;8.88;100.00;102359.88;5068780;28;20052;-68
2021/09/22 04:01:44;;;;;;;29.02;7.32;;;;;;;8.94;100.00;102363.06;5069291;28;20294;-68
2021/09/22 04:04:11;;;;;;;35.42;5.25;;;;;;;8.87;100.00;102362.66;5068730;28;20036;-68
2021/09/22 04:06:37;;;;;;;34.53;5.70;;;;;;;8.87;100.00;102360.84;5068853;28;20075;-68
2021/09/22 04:09:03;;;;;;;33.33;6.68;;;;;;;8.90;100.00;102351.78;5051737;28;20123;-68
2021/09/22 04:11:30;;;;;;;;;;;;;;;8.91;100.00;102357.97;5069494;28;20040;-68
2021/09/22 04:13:57;;;;;;;24.35;5.65;;;;;;;8.89;100.00;102355.41;5068710;28;19916;-68
2021/09/22 04:16:22;;;;;;;43.53;8.07;;;;;;;8.88;100.00;102343.91;5051901;28;20024;-68
2021/09/22 04:18:48;;;;;;;37.20;4.73;;;;;;;8.90;100.00;102351.78;5069392;28;20028;-68
2021/09/22 04:21:14;;;;;;;30.20;5.45;;;;;;;8.84;100.00;102353.06;5068529;28;20339;-68
2021/09/22 04:23:40;;;;;;;34.70;6.30;;;;;;;8.95;100.00;102354.97;5068563;28;20028;-68
2021/09/22 04:26:06;;;;;;;24.63;4.75;;;;;;;9.00;100.00;102358.13;5068448;28;20044;-68
2021/09/22 04:28:33;;;;;;;;;;;;;;;9.06;100.00;102346.16;5052369;28;20492;-68
2021/09/22 04:31:17;;;;;;;25.13;5.93;;;;;;;9.11;100.00;102349.34;5069942;28;19919;-68
2021/09/22 04:34:01;;;;;;;33.17;6.07;;;;;;;9.15;100.00;102358.81;5068169;28;20476;-68
2021/09/22 04:36:47;;;;;;;35.33;5.45;;;;;;;9.23;100.00;102359.09;5069756;28;20083;-68
2021/09/22 04:39:32;;;;;;;;;;;;;;;9.34;100.00;102354.75;5068109;28;20487;-68
2021/09/22 04:42:16;;;;;;;33.60;6.70;;;;;;;9.42;100.00;102361.22;5083179;28;19923;-67
2021/09/22 04:45:00;;;;;;;36.80;6.38;;;;;;;9.54;100.00;102367.44;5068799;28;20365;-68
2021/09/22 04:48:01;;;;;;;39.97;7.57;;;;;;;9.64;100.00;102363.09;5026902;28;20054;-68
2021/09/22 04:50:46;;;;;;;42.47;7.20;;;;;;;9.70;100.00;102357.31;5065655;28;20050;-68
2021/09/22 04:53:30;;;;;;;28.73;5.47;;;;;;;9.79;100.00;102362.94;5069450;28;20051;-68
2021/09/22 04:56:15;;;;;;;29.42;7.38;;;;;;;9.81;100.00;102368.97;5068252;28;20048;-68
2021/09/22 04:58:59;;;;;;;31.70;5.63;;;;;;;9.88;100.00;102364.84;5069156;28;20178;-68
2021/09/22 05:01:43;;;;;;;34.35;7.68;;;;;;;10.03;100.00;102366.34;5069166;28;20051;-68
2021/09/22 05:04:27;;;;;;;25.73;6.05;;;;;;;10.00;100.00;102379.94;5068346;28;20051;-68
2021/09/22 05:07:11;;;;;;;27.13;5.70;;;;;;;10.02;100.00;102379.81;5068772;28;20539;-68
2021/09/22 05:09:55;;;;;;;47.38;7.53;;;;;;;10.05;100.00;102388.44;5068496;28;20051;-68
2021/09/22 05:12:39;;;;;;;45.08;6.20;;;;;;;10.14;100.00;102387.72;5068098;28;20051;-68
2021/09/22 05:15:24;;;;;;;36.55;7.18;;;;;;;10.12;100.00;102384.31;5068594;28;20043;-68
2021/09/22 05:18:08;;;;;;;48.03;8.60;;;;;;;10.19;100.00;102378.50;5068879;28;20124;-68
2021/09/22 05:20:52;;;;;;;33.05;6.05;;;;;;;10.22;100.00;102372.94;5068031;28;20047;-68
2021/09/22 05:23:36;;;;;;;33.20;5.72;;;;;;;10.24;100.00;102376.31;5069016;28;20142;-68
2021/09/22 05:26:21;;;;;;;24.95;5.22;;;;;;;10.25;100.00;102367.34;5068415;28;20151;-68
2021/09/22 05:29:05;;;;;;;43.58;7.25;;;;;;;10.35;100.00;102371.03;5067850;28;20117;-68
2021/09/22 05:31:49;;;;;;;36.38;6.22;;;;;;;10.37;100.00;102371.72;5067598;28;20652;-68
2021/09/22 05:34:33;;;;;;;36.45;6.47;;;;;;;10.37;100.00;102369.06;5068450;28;20125;-68
2021/09/22 05:37:18;;;;;;;33.28;5.55;;;;;;;10.41;100.00;102373.19;5068424;28;20109;-68
2021/09/22 05:40:05;;;;;;;35.67;7.63;;;;;;;10.44;100.00;102377.44;5068282;28;20158;-68
2021/09/22 05:42:50;;;;;;;38.80;7.93;;;;;;;10.45;100.00;102374.66;5068573;28;20063;-68
2021/09/22 05:45:34;;;;;;;30.55;5.68;;;;;;;10.45;100.00;102374.66;5068503;28;20043;-68
2021/09/22 05:48:19;;;;;;;38.53;5.70;;;;;;;10.53;100.00;102382.88;5068170;28;20055;-68
2021/09/22 05:51:04;;;;;;;41.10;6.70;;;;;;;10.63;100.00;102383.03;5068317;28;20047;-68
2021/09/22 05:53:49;;;;;;;31.67;5.45;;;;;;;10.68;100.00;102391.53;5068196;28;20051;-68
2021/09/22 05:56:33;;;;;;;28.38;7.32;;;;;;;10.72;100.00;102403.66;5067625;28;20040;-68
2021/09/22 05:59:18;;;;;;;;;;;;;;;10.74;100.00;102393.69;5056460;28;20044;-68
2021/09/22 06:02:03;;;;;;;33.95;5.38;;;;;;;10.75;100.00;102395.41;5068534;28;19922;-67
2021/09/22 06:04:47;;;;;;;39.17;8.27;;;;;;;10.86;100.00;102393.66;5067110;28;20091;-68
2021/09/22 06:07:31;;;;;;;31.23;6.30;;;;;;;10.94;100.00;102386.75;5067658;28;20122;-68
2021/09/22 06:09:58;;;;;;;44.38;7.57;;;;;;;10.99;100.00;102381.88;5067511;28;20048;-68
2021/09/22 06:12:43;;;;;;;33.72;5.90;;;;;;;11.07;100.00;102383.06;5067128;28;20044;-68
2021/09/22 06:15:09;;;;;;;31.73;6.80;;;;;;;11.17;100.00;102378.66;5067425;28;20041;-68
2021/09/22 06:17:34;;;;;;;36.10;6.90;;;;;;;11.17;100.00;102374.16;5068002;28;20043;-68
2021/09/22 06:20:00;;;;;;;34.38;5.97;;;;;;;11.31;100.00;102378.38;5066402;28;20036;-68
2021/09/22 06:22:26;;;;;;;33.20;6.53;;;;;;;11.49;100.00;102385.81;5050333;28;20035;-68
2021/09/22 06:24:52;;;;;;;36.97;7.90;;;;;;;11.50;100.00;102391.06;5066265;28;20480;-68
2021/09/22 06:27:18;;;;;;;35.60;6.27;;;;;;;11.58;100.00;102390.41;5067725;28;20028;-68
2021/09/22 06:29:47;;;;;;;34.97;6.35;;;;;;;11.76;100.00;102375.47;5050121;28;20025;-68
2021/09/22 06:32:13;;;;;;;29.42;6.78;;;;;;;11.94;100.00;102374.91;5067832;28;20396;-68
2021/09/22 06:34:57;;;;;;;33.25;8.27;;;;;;;12.36;100.00;102375.72;5067527;28;20047;-68
2021/09/22 06:37:37;;;;;;;28.88;5.15;;;;;;;12.64;100.00;102359.84;5052138;28;20462;-68
2021/09/22 06:40:09;;;;;;;31.40;5.40;;;;;;;12.90;100.00;102349.50;5066244;28;20036;-68
2021/09/22 06:42:35;;;;;;;29.17;5.15;;;;;;;13.07;100.00;102338.06;5066829;28;20531;-68
2021/09/22 06:45:01;;;;;;;28.10;5.63;;;;;;;13.23;100.00;102334.00;5082809;28;20024;-68
2021/09/22 06:47:26;;;;;;;33.38;5.03;;;;;;;13.62;100.00;102331.28;5066474;28;20032;-68
2021/09/22 06:49:52;;;;;;;22.77;5.83;;;;;;;13.84;100.00;102319.41;5067508;28;20037;-68
2021/09/22 06:52:17;;;;;;;29.95;5.43;;;;;;;13.90;100.00;102325.00;5067001;28;20046;-73
2021/09/22 06:54:43;;;;;;;29.48;6.65;;;;;;;13.66;99.52;102311.22;5066703;28;20025;-72
2021/09/22 06:57:08;;;;;;;27.07;5.97;;;;;;;14.15;98.08;102314.63;5065802;28;20505;-72
2021/09/22 06:59:34;;;;;;;28.33;6.23;;;;;;;14.66;96.94;102312.41;5066667;28;20107;-68
2021/09/22 07:02:00;;;;;;;16.83;4.53;;;;;;;14.94;94.74;102308.66;5066342;28;20377;-68
2021/09/22 07:04:25;;;;;;;20.30;4.50;;;;;;;14.90;91.67;102296.50;5068411;28;20377;-68
2021/09/22 07:06:51;;;;;;;21.23;5.97;;;;;;;14.75;90.93;102298.06;5069113;28;20064;-68
2021/09/22 07:09:16;;;;;;;15.37;4.30;;;;;;;15.19;91.66;102301.66;5069937;28;20384;-68
2021/09/22 07:11:43;;;;;;;26.55;4.70;;;;;;;15.10;89.57;102291.84;5070196;28;20126;-68
2021/09/22 07:14:08;;;;;;;19.30;6.40;;;;;;;15.24;88.49;102308.41;5069062;28;20506;-68
2021/09/22 07:16:34;;;;;;;20.90;5.57;;;;;;;14.94;88.95;102314.03;5070106;28;20043;-68
2021/09/22 07:18:59;;;;;;;23.27;4.00;;;;;;;15.26;89.33;102307.25;5069945;28;20025;-68
2021/09/22 07:21:25;;;;;;;19.52;4.40;;;;;;;15.59;88.40;102313.75;5069393;28;20044;-68
2021/09/22 07:23:51;;;;;;;19.95;4.63;;;;;;;15.87;87.38;102305.53;5069201;28;20560;-69
2021/09/22 07:26:17;;;;;;;25.75;4.35;;;;;;;16.12;86.24;102305.66;5069944;28;20043;-68
2021/09/22 07:28:43;;;;;;;26.65;4.82;;;;;;;16.12;84.24;102297.59;5068872;28;20036;-68
2021/09/22 07:31:10;;;;;;;15.45;4.07;;;;;;;16.17;84.34;102306.88;5070168;28;20044;-69
2021/09/22 07:33:36;;;;;;;;;;;;;;;15.53;83.78;102294.69;5070201;28;20106;-68
2021/09/22 07:36:02;;;;;;;;;;;;;;;16.60;83.38;102299.63;5070158;28;19916;-69
2021/09/22 07:38:28;;;;;;;25.90;4.85;;;;;;;17.02;81.46;102287.94;5085423;28;20026;-68
2021/09/22 07:40:55;;;;;;;20.92;4.00;;;;;;;17.37;80.37;102282.34;5070031;28;20103;-69
2021/09/22 07:43:21;;;;;;;17.88;4.45;;;;;;;17.76;78.70;102284.31;5068772;28;20361;-69
2021/09/22 07:45:48;;;;;;;20.13;4.47;;;;;;;17.86;76.59;102276.88;5069837;28;20033;-69
2021/09/22 07:48:14;;;;;;;18.73;5.05;;;;;;;17.50;77.62;102277.28;5069412;28;20695;-69
2021/09/22 07:50:40;;;;;;;22.23;4.88;;;;;;;17.72;76.73;102275.69;5051952;28;20098;-69
2021/09/22 07:53:05;;;;;;;27.50;5.10;;;;;;;18.33;75.52;102278.72;5068801;28;20036;-69
2021/09/22 07:55:31;;;;;;;23.73;5.20;;;;;;;17.74;77.46;102279.06;5068213;28;20256;-68
2021/09/22 07:57:57;;;;;;;19.70;4.50;;;;;;;18.35;75.87;102276.69;5069772;28;20185;-69
2021/09/22 08:00:24;;;;;;;19.05;4.28;;;;;;;19.17;74.58;102270.75;5069245;28;20036;-69
2021/09/22 08:02:51;;;;;;;19.25;4.63;;;;;;;19.25;72.62;102267.97;5070101;28;20036;-69
2021/09/22 08:05:16;;;;;;;21.30;4.57;;;;;;;18.90;72.67;102274.88;5070017;28;20040;-69
2021/09/22 08:07:44;;;;;;;20.77;4.63;;;;;;;18.94;72.78;102274.31;5069328;28;20043;-69
2021/09/22 08:10:10;;;;;;;14.88;5.50;;;;;;;19.78;70.66;102268.84;5052003;28;20475;-69
2021/09/22 08:12:35;;;;;;;;;;;;;;;19.38;70.10;102265.47;5070659;28;20037;-69
2021/09/22 08:15:01;;;;;;;27.63;5.07;;;;;;;18.30;74.53;102285.31;5084253;28;19923;-69
2021/09/22 08:17:26;;;;;;;26.47;5.63;;;;;;;18.80;73.54;102279.66;5050885;28;20025;-69
2021/09/22 08:19:52;;;;;;;22.50;4.85;;;;;;;19.50;69.83;102254.19;5068159;28;20059;-69
2021/09/22 08:22:18;;;;;;;14.07;4.53;;;;;;;19.99;68.69;102251.81;5068463;28;20028;-69
2021/09/22 08:24:45;;;;;;;24.48;5.40;;;;;;;20.40;66.83;102247.72;5067180;28;20290;-69
2021/09/22 08:27:12;;;;;;;24.20;4.80;;;;;;;19.84;69.00;102260.97;5068242;28;20086;-69
2021/09/22 08:29:38;;;;;;;19.25;5.88;;;;;;;20.26;67.83;102260.28;5068483;28;20393;-69
2021/09/22 08:32:04;;;;;;;24.27;4.70;;;;;;;19.96;67.17;102259.47;5069863;28;20034;-69
2021/09/22 08:34:30;;;;;;;18.67;4.93;;;;;;;20.82;66.83;102265.94;5069558;28;20612;-69
2021/09/22 08:36:55;;;;;;;20.95;5.93;;;;;;;21.48;64.53;102249.38;5069619;28;20388;-69
2021/09/22 08:39:22;;;;;;;15.70;4.78;;;;;;;21.58;64.80;102259.88;5085367;28;20032;-69
2021/09/22 08:41:49;;;;;;;24.17;5.32;;;;;;;21.74;62.49;102245.16;5068540;28;20044;-69
2021/09/22 08:44:16;;;;;;;20.88;4.28;;;;;;;21.83;62.05;102240.41;5051623;28;20032;-69
2021/09/22 08:46:44;;;;;;;18.02;4.32;;;;;;;21.14;63.02;102246.56;5068351;28;20070;-69
2021/09/22 08:49:11;;;;;;;20.77;4.65;;;;;;;19.92;68.35;102272.53;5068237;28;20037;-69
2021/09/22 08:51:38;;;;;;;18.10;4.35;;;;;;;21.54;64.47;102255.91;5069217;28;20032;-69
2021/09/22 08:54:05;;;;;;;19.73;4.32;;;;;;;22.28;61.73;102233.50;5068154;28;20028;-69
2021/09/22 08:56:31;;;;;;;21.88;5.50;;;;;;;22.01;61.62;102235.25;5067902;28;20305;-69
2021/09/22 08:58:57;;;;;;;19.48;4.10;;;;;;;21.31;64.33;102247.16;5068955;28;20522;-69
2021/09/22 09:01:25;;;;;;;17.92;5.80;;;;;;;21.61;63.78;102245.91;5069065;28;20028;-69
2021/09/22 09:03:52;;;;;;;20.73;4.72;;;;;;;20.52;65.46;102243.47;5069137;28;20028;-69
2021/09/22 09:06:33;;;;;;;23.90;4.82;;;;;;;21.84;63.68;102247.50;5067753;28;20441;-69
2021/09/22 09:08:59;;;;;;;18.35;5.03;;;;;;;22.17;61.17;102230.50;5084342;28;20119;-69
2021/09/22 09:11:36;;;;;;;18.25;4.28;;;;;;;22.04;61.92;102247.59;5067730;28;20154;-69
2021/09/22 09:14:06;;;;;;;18.38;4.22;;;;;;;22.32;62.83;102247.53;5068670;28;20563;-69
2021/09/22 09:16:43;;;;;;;20.08;4.40;;;;;;;22.51;60.83;102229.59;5068758;28;20047;-69
2021/09/22 09:19:20;;;;;;;16.13;4.20;;;;;;;21.66;63.62;102246.16;5068479;28;20033;-73
2021/09/22 09:22:00;;;;;;;20.95;5.00;;;;;;;22.05;62.21;102233.78;5067783;28;20409;-73
2021/09/22 09:24:40;;;;;;;23.52;4.88;;;;;;;21.67;63.74;102247.00;5068676;28;20036;-73
2021/09/22 09:27:35;;;;;;;15.18;5.15;;;;;;;21.52;63.98;102244.41;5067927;28;20044;-72
2021/09/22 09:30:18;;;;;;;24.83;5.57;;;;;;;22.37;62.06;102246.94;5067491;28;20525;-73
2021/09/22 09:32:44;;;;;;;18.15;4.13;;;;;;;22.34;62.42;102231.84;5068498;28;20029;-73
2021/09/22 09:35:16;;;;;;;19.58;4.68;;;;;;;21.78;62.41;102227.41;5068062;28;20517;-72
2021/09/22 09:37:46;;;;;;;17.00;5.07;;;;;;;22.07;62.51;102236.31;5068196;28;20491;-73
2021/09/22 09:40:22;;;;;;;16.83;4.20;;;;;;;22.87;61.01;102221.03;5068097;28;20062;-73
2021/09/22 09:42:50;;;;;;;20.23;5.40;;;;;;;23.09;59.60;102215.44;5068333;28;20116;-73
2021/09/22 09:45:20;;;;;;;17.05;5.35;;;;;;;23.04;59.68;102221.50;5066343;28;20293;-73
2021/09/22 09:48:09;;;;;;;18.17;5.55;;;;;;;22.79;60.00;102225.88;5065468;28;20044;-73
2021/09/22 09:50:44;;;;;;;21.33;7.22;;;;;;;21.67;62.06;102241.56;5065553;28;20050;-72
2021/09/22 09:53:22;;;;;;;23.85;6.85;;;;;;;21.65;63.42;102241.75;5066685;28;20032;-73
2021/09/22 09:55:48;;;;;;;21.65;7.60;;;;;;;22.44;62.84;102243.16;5065067;28;20047;-72
2021/09/22 09:58:13;;;;;;;26.33;7.73;;;;;;;21.83;62.77;102235.78;5065500;28;20044;-72
2021/09/22 10:00:39;;;;;;;22.88;6.68;;;;;;;22.85;62.43;102231.31;5066089;28;20389;-72
2021/09/22 10:03:19;;;;;;;22.33;6.73;;;;;;;22.86;62.43;102226.72;5066909;28;20098;-72
2021/09/22 10:05:46;;;;;;;20.55;7.15;;;;;;;22.70;61.88;102223.31;5067922;28;20719;-72
2021/09/22 10:08:13;;;;;;;17.80;5.00;;;;;;;23.34;59.84;102216.47;5066956;28;20037;-72
2021/09/22 10:10:44;;;;;;;20.80;4.57;;;;;;;23.60;57.96;102206.56;5066653;28;20044;-72
2021/09/22 10:13:11;;;;;;;15.20;5.50;;;;;;;23.07;60.89;102226.53;5067911;28;20378;-72
2021/09/22 10:15:40;;;;;;;18.52;4.45;;;;;;;22.79;59.86;102207.63;5066890;28;20410;-72
2021/09/22 10:18:07;;;;;;;14.77;4.15;;;;;;;22.99;57.96;102199.50;5067968;28;20063;-72
2021/09/22 10:20:34;;;;;;;15.63;3.13;;;;;;;22.92;59.49;102198.63;5067831;28;20078;-73
2021/09/22 10:23:00;;;;;;;19.65;4.05;;;;;;;23.34;59.79;102200.09;5068007;28;20048;-72
2021/09/22 10:25:27;;;;;;;13.77;3.85;;;;;;;23.09;59.55;102208.09;5067689;28;20123;-72
2021/09/22 10:27:52;;;;;;;14.27;3.00;;;;;;;23.55;56.74;102182.66;5067992;28;20060;-72
2021/09/22 10:30:35;;;;;;;14.68;3.58;;;;;;;23.16;58.60;102187.13;5066686;28;20072;-72
2021/09/22 10:33:01;;;;;;;11.18;2.70;;;;;;;22.93;58.73;102186.69;5067954;28;20041;-72
2021/09/22 10:35:26;;;;;;;;;;;;;;;22.30;59.26;102198.75;5068137;28;20033;-73
2021/09/22 10:37:59;;;;;;;18.77;3.58;;;;;;;22.93;59.53;102197.59;5067210;28;19924;-73
2021/09/22 10:40:47;;;;;;;15.45;2.95;;;;;;;23.47;57.76;102188.31;5071423;28;20055;-72
2021/09/22 10:43:15;;;;;;;16.13;4.03;;;;;;;22.37;58.63;102189.78;5070864;28;20036;-73
2021/09/22 10:45:42;;;;;;;11.43;2.60;;;;;;;21.07;60.08;102182.22;5070398;28;20064;-73
2021/09/22 10:48:18;;;;;;;14.48;3.42;;;;;;;20.80;64.75;102219.13;5071465;28;20051;-73
2021/09/22 10:50:45;;;;;;;10.75;3.03;;;;;;;21.28;63.54;102210.31;5070006;28;20100;-72
2021/09/22 10:53:32;;;;;;;10.38;2.95;;;;;;;21.71;60.13;102193.91;5070603;28;20041;-72
2021/09/22 10:56:07;;;;;;;11.82;3.38;;;;;;;21.63;61.57;102191.34;5070132;28;20465;-72
2021/09/22 10:58:41;;;;;;;15.70;3.95;;;;;;;22.16;59.88;102185.31;5071203;28;20449;-72
2021/09/22 11:01:08;;;;;;;13.05;3.38;;;;;;;22.91;59.53;102183.34;5070331;28;20044;-72
2021/09/22 11:03:50;;;;;;;14.65;2.95;;;;;;;23.26;57.93;102169.50;5071331;28;20031;-73
2021/09/22 11:06:48;;;;;;;13.10;2.92;;;;;;;23.70;57.40;102176.09;5069804;28;20127;-72
2021/09/22 11:09:23;;;;;;;13.88;3.25;;;;;;;24.02;57.08;102164.25;5068311;28;20412;-73
2021/09/22 11:12:00;;;;;;;10.63;2.92;;;;;;;24.13;55.80;102153.69;5071218;28;20082;-73
2021/09/22 11:14:32;;;;;;;11.57;2.35;;;;;;;24.10;55.69;102154.97;5069941;28;20042;-73
2021/09/22 11:17:17;;;;;;;11.75;3.15;;;;;;;24.18;53.89;102143.78;5070889;28;20044;-72
2021/09/22 11:19:47;;;;;;;6.88;2.58;;;;;;;23.10;56.99;102159.91;5070712;28;20040;-72
2021/09/22 11:22:16;;;;;;;10.50;2.70;;;;;;;22.50;57.14;102155.28;5053287;28;20045;-73
2021/09/22 11:24:42;;;;;;;12.32;3.55;;;;;;;21.63;61.47;102185.91;5069708;28;20342;-72
2021/09/22 11:27:17;;;;;;;14.38;3.05;;;;;;;21.17;62.61;102191.88;5070660;28;20115;-72
2021/09/22 11:29:47;;;;;;;10.43;3.53;;;;;;;20.71;63.33;102192.34;5069526;28;20029;-72
2021/09/22 11:32:29;;;;;;;10.45;2.65;;;;;;;20.60;63.28;102191.84;5069735;28;20036;-73